Time;durP1;ratioP1;P1;durP2;ratioP2;P2;SDS_P1;SDS_P2;PMS_P1;PMS_P2;Temp;Humidity;BMP_temperature;BMP_pressure;BME280_temperature;BME280_humidity;BME280_pressure;Samples;Min_cycle;Max_cycle;Signal;HPM_P1;HPM_P2
2022/07/31 00:01:11;;;;;;;0.10;0.10;;;19.10;99.90;;;;;;5060124;28;20113;-80
2022/07/31 00:03:36;;;;;;;0.10;0.10;;;19.10;99.90;;;;;;5065208;28;20049;-80
2022/07/31 00:06:02;;;;;;;0.10;0.10;;;19.10;99.90;;;;;;5069323;28;20503;-80
2022/07/31 00:08:30;;;;;;;0.10;0.10;;;19.20;99.90;;;;;;5056093;28;20041;-80
2022/07/31 00:10:56;;;;;;;0.20;0.20;;;19.10;99.90;;;;;;5049617;28;20090;-82
2022/07/31 00:13:22;;;;;;;0.10;0.10;;;19.10;99.90;;;;;;5058030;28;20048;-81
2022/07/31 00:15:50;;;;;;;0.10;0.10;;;19.00;99.90;;;;;;5071374;28;20041;-80
2022/07/31 00:18:16;;;;;;;0.10;0.10;;;19.00;99.90;;;;;;5070731;28;20041;-80
2022/07/31 00:20:43;;;;;;;0.17;0.17;;;19.10;99.90;;;;;;5067119;28;20496;-80
2022/07/31 00:23:09;;;;;;;0.10;0.10;;;19.00;99.90;;;;;;5059997;28;20040;-81
2022/07/31 00:25:34;;;;;;;0.20;0.20;;;18.90;99.90;;;;;;5058770;28;20040;-81
2022/07/31 00:28:00;;;;;;;0.20;0.20;;;19.00;99.90;;;;;;5053530;28;20499;-79
2022/07/31 00:30:26;;;;;;;0.13;0.13;;;19.00;99.90;;;;;;5072568;28;20052;-80
2022/07/31 00:32:51;;;;;;;0.20;0.20;;;19.00;99.90;;;;;;5071753;28;20112;-80
2022/07/31 00:35:17;;;;;;;0.10;0.10;;;19.00;99.90;;;;;;5068215;28;20039;-80
2022/07/31 00:37:43;;;;;;;0.20;0.20;;;18.90;99.90;;;;;;5070127;28;20507;-80
2022/07/31 00:40:12;;;;;;;0.10;0.10;;;19.00;99.90;;;;;;5072141;28;20132;-80
2022/07/31 00:42:38;;;;;;;0.20;0.20;;;18.90;99.90;;;;;;5082555;28;20048;-80
2022/07/31 00:45:04;;;;;;;0.10;0.10;;;18.90;99.90;;;;;;5053018;28;20048;-81
2022/07/31 00:47:30;;;;;;;0.20;0.20;;;18.90;99.90;;;;;;5065578;28;20037;-80
2022/07/31 00:49:55;;;;;;;0.20;0.20;;;18.90;99.90;;;;;;5056309;28;20047;-80
2022/07/31 00:52:21;;;;;;;0.20;0.20;;;18.90;99.90;;;;;;5064100;28;21001;-81
2022/07/31 00:54:47;;;;;;;0.20;0.20;;;18.90;99.90;;;;;;5068261;28;20141;-80
2022/07/31 00:57:14;;;;;;;0.20;0.20;;;18.90;99.90;;;;;;5054857;28;20465;-80
2022/07/31 00:59:40;;;;;;;0.10;0.10;;;19.00;99.90;;;;;;5047793;28;20057;-80
2022/07/31 01:02:07;;;;;;;0.10;0.10;;;19.00;99.90;;;;;;5049580;28;20056;-80
2022/07/31 01:04:33;;;;;;;0.20;0.20;;;19.00;99.90;;;;;;5063548;28;20119;-79
2022/07/31 01:06:59;;;;;;;0.20;0.20;;;19.00;99.90;;;;;;5080385;28;20033;-81
2022/07/31 01:09:25;;;;;;;0.20;0.20;;;19.00;99.90;;;;;;5068479;28;20040;-81
2022/07/31 01:12:15;;;;;;;0.20;0.20;;;19.00;99.90;;;;;;5074685;28;20047;-81
2022/07/31 01:14:54;;;;;;;0.13;0.13;;;19.10;99.90;;;;;;5066101;28;20171;-81
2022/07/31 01:17:21;;;;;;;0.10;0.10;;;19.10;99.90;;;;;;5055563;28;20037;-82
2022/07/31 01:19:49;;;;;;;0.20;0.20;;;19.10;99.90;;;;;;5059111;28;20163;-81
2022/07/31 01:22:33;;;;;;;0.20;0.20;;;19.10;99.90;;;;;;5073653;28;20032;-81
2022/07/31 01:25:11;;;;;;;0.10;0.10;;;19.10;99.90;;;;;;5065026;28;20060;-81
2022/07/31 01:27:44;;;;;;;0.10;0.10;;;19.10;99.90;;;;;;5056743;28;20587;-80
2022/07/31 01:30:10;;;;;;;0.10;0.10;;;19.10;99.90;;;;;;5070956;28;20174;-80
2022/07/31 01:32:45;;;;;;;0.20;0.20;;;19.10;99.90;;;;;;5057050;28;20197;-81
2022/07/31 01:35:18;;;;;;;0.10;0.10;;;19.10;99.90;;;;;;5059815;28;20489;-81
2022/07/31 01:37:51;;;;;;;0.20;0.20;;;19.10;99.90;;;;;;5059100;28;20041;-81
2022/07/31 01:40:26;;;;;;;0.10;0.10;;;19.10;99.90;;;;;;5073794;28;20045;-81
2022/07/31 01:42:57;;;;;;;0.20;0.20;;;19.10;99.90;;;;;;5065260;28;20131;-81
2022/07/31 01:45:24;;;;;;;;;;;19.10;99.90;;;;;;5060855;28;20049;-81
2022/07/31 01:47:51;;;;;;;0.10;0.10;;;19.10;99.90;;;;;;5048613;28;20418;-81
2022/07/31 01:50:17;;;;;;;0.20;0.20;;;19.10;99.90;;;;;;5059964;28;20052;-81
2022/07/31 01:52:44;;;;;;;0.20;0.20;;;19.10;99.90;;;;;;5065692;28;20103;-80
2022/07/31 01:55:12;;;;;;;0.20;0.20;;;19.10;99.90;;;;;;5053634;28;20388;-80
2022/07/31 01:57:40;;;;;;;0.20;0.20;;;19.10;99.90;;;;;;5072678;28;20047;-80
2022/07/31 02:00:08;;;;;;;0.20;0.20;;;19.10;99.90;;;;;;5066894;28;20068;-81
2022/07/31 02:02:35;;;;;;;0.20;0.20;;;19.10;99.90;;;;;;5058400;28;20044;-81
2022/07/31 02:05:06;;;;;;;0.20;0.20;;;19.00;99.90;;;;;;5056250;28;20049;-81
2022/07/31 02:07:35;;;;;;;0.15;0.15;;;19.00;99.90;;;;;;5069885;28;20104;-80
2022/07/31 02:10:02;;;;;;;0.10;0.10;;;19.00;99.90;;;;;;5072179;28;20052;-81
2022/07/31 02:12:28;;;;;;;0.17;0.17;;;18.90;99.90;;;;;;5071889;28;20044;-80
2022/07/31 02:14:55;;;;;;;0.20;0.20;;;18.90;99.90;;;;;;5073985;28;20052;-81
2022/07/31 02:17:22;;;;;;;0.20;0.20;;;18.80;99.90;;;;;;5073980;28;20063;-81
2022/07/31 02:19:50;;;;;;;0.10;0.10;;;18.50;99.90;;;;;;5081098;28;20037;-80
2022/07/31 02:22:16;;;;;;;0.10;0.10;;;18.80;99.90;;;;;;5074997;28;20044;-81
2022/07/31 02:24:41;;;;;;;0.20;0.20;;;18.80;99.90;;;;;;5071290;28;20044;-81
2022/07/31 02:27:10;;;;;;;0.15;0.15;;;18.70;99.90;;;;;;5071231;28;20135;-81
2022/07/31 02:29:37;;;;;;;0.10;0.10;;;18.80;99.90;;;;;;5065487;28;20142;-81
2022/07/31 02:32:04;;;;;;;0.20;0.20;;;18.70;99.90;;;;;;5054909;28;20045;-80
2022/07/31 02:34:31;;;;;;;0.20;0.20;;;18.70;99.90;;;;;;5068707;28;20066;-81
2022/07/31 02:36:59;;;;;;;0.22;0.22;;;18.80;99.90;;;;;;5072960;28;20121;-82
2022/07/31 02:39:26;;;;;;;0.10;0.10;;;18.70;99.90;;;;;;5072233;28;20476;-81
2022/07/31 02:41:53;;;;;;;0.20;0.20;;;18.70;99.90;;;;;;5062975;28;20045;-81
2022/07/31 02:44:19;;;;;;;0.20;0.20;;;18.60;99.90;;;;;;5058950;28;20090;-81
2022/07/31 02:46:45;;;;;;;0.20;0.20;;;18.60;99.90;;;;;;5061739;28;20044;-80
2022/07/31 02:49:14;;;;;;;0.17;0.17;;;18.60;99.90;;;;;;5053398;28;20045;-81
2022/07/31 02:51:41;;;;;;;0.20;0.20;;;18.70;99.90;;;;;;5062278;28;20041;-81
2022/07/31 02:54:07;;;;;;;0.20;0.20;;;18.60;99.90;;;;;;5057385;28;20059;-81
2022/07/31 02:56:33;;;;;;;0.20;0.20;;;18.60;99.90;;;;;;5072166;28;20049;-81
2022/07/31 02:58:59;;;;;;;0.10;0.10;;;18.60;99.90;;;;;;5087960;28;20068;-81
2022/07/31 03:01:25;;;;;;;0.17;0.17;;;18.60;99.90;;;;;;5058086;28;20045;-82
2022/07/31 03:03:51;;;;;;;0.10;0.10;;;18.60;99.90;;;;;;5058465;28;20131;-81
2022/07/31 03:06:17;;;;;;;0.20;0.20;;;18.60;99.90;;;;;;5051117;28;20037;-82
2022/07/31 03:08:43;;;;;;;0.10;0.10;;;18.50;99.90;;;;;;5081811;28;20053;-80
2022/07/31 03:11:09;;;;;;;0.20;0.20;;;18.50;99.90;;;;;;5069501;28;20090;-81
2022/07/31 03:13:36;;;;;;;0.10;0.10;;;18.40;99.90;;;;;;5067844;28;20049;-82
2022/07/31 03:16:04;;;;;;;0.13;0.13;;;18.40;99.90;;;;;;5060547;28;20127;-81
2022/07/31 03:18:31;;;;;;;0.20;0.20;;;18.40;99.90;;;;;;5067464;28;20037;-81
2022/07/31 03:20:57;;;;;;;0.20;0.20;;;18.30;99.90;;;;;;5071597;28;20063;-80
2022/07/31 03:23:24;;;;;;;0.20;0.20;;;18.30;99.90;;;;;;5068331;28;20392;-81
2022/07/31 03:25:52;;;;;;;0.20;0.20;;;18.30;99.90;;;;;;5063789;28;20048;-82
2022/07/31 03:28:19;;;;;;;0.20;0.20;;;18.30;99.90;;;;;;5070709;28;20044;-80
2022/07/31 03:30:51;;;;;;;0.20;0.20;;;18.30;99.90;;;;;;5054278;28;20045;-81
2022/07/31 03:33:21;;;;;;;0.20;0.20;;;18.30;99.90;;;;;;5062952;28;20056;-80
2022/07/31 03:35:47;;;;;;;0.10;0.10;;;18.30;99.90;;;;;;5071918;28;20051;-80
2022/07/31 03:38:12;;;;;;;0.10;0.10;;;18.30;99.90;;;;;;5069914;28;20049;-81
2022/07/31 03:40:38;;;;;;;0.20;0.20;;;18.30;99.90;;;;;;5069640;28;20105;-81
2022/07/31 03:43:05;;;;;;;0.10;0.10;;;18.20;99.90;;;;;;5070603;28;20124;-80
2022/07/31 03:45:33;;;;;;;0.20;0.20;;;18.30;99.90;;;;;;5066342;28;20036;-81
2022/07/31 03:47:59;;;;;;;0.20;0.20;;;18.20;99.90;;;;;;5061220;28;20044;-80
2022/07/31 03:50:26;;;;;;;0.20;0.20;;;18.20;99.90;;;;;;5058197;28;20041;-80
2022/07/31 03:52:52;;;;;;;0.20;0.20;;;18.20;99.90;;;;;;5070105;28;20117;-80
2022/07/31 03:55:17;;;;;;;0.17;0.17;;;18.20;99.90;;;;;;5073399;28;20037;-81
2022/07/31 03:57:44;;;;;;;0.20;0.20;;;18.20;99.90;;;;;;5066615;28;20048;-81
2022/07/31 04:00:10;;;;;;;0.20;0.20;;;18.20;99.90;;;;;;5055834;28;20514;-81
2022/07/31 04:02:36;;;;;;;0.20;0.20;;;18.30;99.90;;;;;;5059161;28;20075;-80
2022/07/31 04:05:02;;;;;;;0.20;0.20;;;18.20;99.90;;;;;;5076846;28;20082;-81
2022/07/31 04:07:28;;;;;;;0.10;0.10;;;18.20;99.90;;;;;;5091547;28;20040;-80
2022/07/31 04:09:54;;;;;;;0.20;0.20;;;18.30;99.90;;;;;;5068332;28;20397;-80
2022/07/31 04:12:28;;;;;;;0.17;0.17;;;18.20;99.90;;;;;;5057734;28;20044;-80
2022/07/31 04:14:54;;;;;;;0.10;0.10;;;18.10;99.90;;;;;;5049089;28;20045;-80
2022/07/31 04:17:19;;;;;;;0.20;0.20;;;18.20;99.90;;;;;;5057810;28;20552;-80
2022/07/31 04:19:45;;;;;;;0.10;0.10;;;18.10;99.90;;;;;;5065770;28;20049;-81
2022/07/31 04:22:11;;;;;;;0.10;0.10;;;18.10;99.90;;;;;;5050466;28;20041;-81
2022/07/31 04:24:36;;;;;;;0.10;0.10;;;18.10;99.90;;;;;;5061731;28;20041;-79
2022/07/31 04:27:03;;;;;;;0.20;0.20;;;18.10;99.90;;;;;;5084856;28;20037;-80
2022/07/31 04:29:29;;;;;;;0.10;0.10;;;18.00;99.90;;;;;;5051861;28;20463;-79
2022/07/31 04:31:55;;;;;;;0.10;0.10;;;18.00;99.90;;;;;;5050680;28;20043;-80
2022/07/31 04:34:21;;;;;;;0.20;0.20;;;18.00;99.90;;;;;;5052109;28;20041;-80
2022/07/31 04:36:52;;;;;;;0.20;0.20;;;18.00;99.90;;;;;;5049994;28;20041;-80
2022/07/31 04:39:17;;;;;;;0.10;0.10;;;18.10;99.90;;;;;;5076966;28;20688;-80
2022/07/31 04:41:43;;;;;;;0.10;0.10;;;17.90;99.90;;;;;;5068185;28;20041;-80
2022/07/31 04:44:09;;;;;;;0.10;0.10;;;18.20;99.90;;;;;;5060094;28;20033;-81
2022/07/31 04:46:35;;;;;;;0.20;0.20;;;18.10;99.90;;;;;;5056165;28;20109;-80
2022/07/31 04:49:06;;;;;;;0.20;0.20;;;18.10;99.90;;;;;;5069779;28;20041;-79
2022/07/31 04:51:32;;;;;;;0.20;0.20;;;18.20;99.90;;;;;;5064625;28;20524;-80
2022/07/31 04:53:58;;;;;;;0.10;0.10;;;18.20;99.90;;;;;;5048118;28;20139;-80
2022/07/31 04:56:32;;;;;;;0.20;0.20;;;18.20;99.90;;;;;;5049745;28;20029;-80
2022/07/31 04:58:59;;;;;;;0.17;0.17;;;18.20;99.90;;;;;;5048688;28;20063;-80
2022/07/31 05:01:25;;;;;;;0.15;0.15;;;18.30;99.90;;;;;;5052295;28;20040;-80
2022/07/31 05:03:51;;;;;;;0.20;0.20;;;18.30;99.90;;;;;;5072589;28;20503;-79
2022/07/31 05:06:17;;;;;;;0.20;0.20;;;18.40;99.90;;;;;;5057996;28;20134;-80
2022/07/31 05:08:42;;;;;;;0.20;0.20;;;18.30;99.90;;;;;;5052747;28;20044;-80
2022/07/31 05:11:23;;;;;;;0.10;0.10;;;18.40;99.90;;;;;;5048720;28;20497;-80
2022/07/31 05:13:57;;;;;;;0.15;0.15;;;18.40;99.90;;;;;;5049728;28;20049;-80
2022/07/31 05:16:23;;;;;;;0.20;0.20;;;18.40;99.90;;;;;;5051660;28;20059;-80
2022/07/31 05:18:52;;;;;;;0.10;0.10;;;18.40;99.90;;;;;;5063050;28;20037;-81
2022/07/31 05:21:18;;;;;;;0.20;0.20;;;18.40;99.90;;;;;;5052651;28;20037;-79
2022/07/31 05:23:46;;;;;;;0.10;0.10;;;18.50;99.90;;;;;;5052065;28;20050;-81
2022/07/31 05:26:12;;;;;;;0.10;0.10;;;18.50;99.90;;;;;;5057565;28;20045;-80
2022/07/31 05:28:38;;;;;;;0.20;0.20;;;18.50;99.90;;;;;;5050141;28;20132;-80
2022/07/31 05:31:06;;;;;;;0.20;0.20;;;18.50;99.90;;;;;;5063297;28;20123;-82
2022/07/31 05:33:32;;;;;;;0.20;0.20;;;18.60;99.90;;;;;;5075966;28;20250;-78
2022/07/31 05:35:59;;;;;;;0.20;0.20;;;18.60;99.90;;;;;;5055602;28;20605;-81
2022/07/31 05:38:25;;;;;;;0.20;0.20;;;18.60;99.90;;;;;;5051777;28;20090;-79
2022/07/31 05:40:52;;;;;;;0.10;0.10;;;18.60;99.90;;;;;;5063640;28;20172;-81
2022/07/31 05:43:18;;;;;;;0.20;0.20;;;18.60;99.90;;;;;;5073307;28;20044;-81
2022/07/31 05:45:45;;;;;;;0.20;0.20;;;18.70;99.90;;;;;;5066761;28;20106;-81
2022/07/31 05:48:15;;;;;;;0.20;0.20;;;18.70;99.90;;;;;;5064742;28;20053;-80
2022/07/31 05:50:45;;;;;;;0.20;0.20;;;18.70;99.90;;;;;;5079361;28;20047;-80
2022/07/31 05:53:14;;;;;;;0.10;0.10;;;18.80;99.90;;;;;;5071067;28;20067;-81
2022/07/31 05:55:40;;;;;;;0.10;0.10;;;18.80;99.90;;;;;;5063967;28;20103;-81
2022/07/31 05:58:06;;;;;;;0.20;0.20;;;18.70;99.90;;;;;;5060234;28;20033;-80
2022/07/31 06:00:32;;;;;;;0.10;0.10;;;18.70;99.90;;;;;;5069959;28;20063;-81
2022/07/31 06:03:01;;;;;;;0.20;0.20;;;18.80;99.90;;;;;;5073991;28;20072;-80
2022/07/31 06:05:28;;;;;;;0.20;0.20;;;18.80;99.90;;;;;;5052472;28;20546;-80
2022/07/31 06:07:55;;;;;;;0.20;0.20;;;18.70;99.90;;;;;;5053775;28;20045;-81
2022/07/31 06:10:21;;;;;;;0.20;0.20;;;18.80;99.90;;;;;;5061852;28;20032;-81
2022/07/31 06:12:49;;;;;;;0.20;0.20;;;18.90;99.90;;;;;;5073013;28;20044;-81
2022/07/31 06:15:15;;;;;;;0.20;0.20;;;18.90;99.90;;;;;;5069233;28;20049;-81
2022/07/31 06:17:42;;;;;;;0.15;0.15;;;18.90;99.90;;;;;;5058730;28;20052;-81
2022/07/31 06:20:09;;;;;;;0.20;0.20;;;18.90;99.90;;;;;;5056583;28;20041;-80
2022/07/31 06:22:35;;;;;;;0.20;0.20;;;19.00;99.90;;;;;;5059287;28;20076;-80
2022/07/31 06:25:01;;;;;;;0.20;0.20;;;19.00;99.90;;;;;;5054908;28;20156;-80
2022/07/31 06:27:27;;;;;;;0.20;0.20;;;19.10;99.90;;;;;;5058941;28;20056;-80
2022/07/31 06:29:53;;;;;;;0.20;0.20;;;19.10;99.90;;;;;;5058963;28;20037;-81
2022/07/31 06:32:19;;;;;;;0.15;0.15;;;19.10;99.90;;;;;;5058906;28;20554;-81
2022/07/31 06:34:44;;;;;;;0.20;0.20;;;19.20;99.90;;;;;;5060928;28;20042;-81
2022/07/31 06:37:10;;;;;;;0.10;0.10;;;19.20;99.90;;;;;;5057716;28;20040;-80
2022/07/31 06:39:36;;;;;;;0.20;0.20;;;19.20;99.90;;;;;;5073601;28;20072;-79
2022/07/31 06:42:02;;;;;;;0.20;0.20;;;19.30;99.90;;;;;;5076476;28;20076;-82
2022/07/31 06:44:29;;;;;;;0.20;0.20;;;19.30;99.90;;;;;;5065350;28;20115;-81
2022/07/31 06:46:54;;;;;;;0.20;0.20;;;19.30;99.90;;;;;;5059920;28;20119;-82
2022/07/31 06:49:20;;;;;;;0.10;0.10;;;19.40;99.90;;;;;;5060428;28;20126;-83
2022/07/31 06:51:46;;;;;;;0.20;0.20;;;19.40;99.90;;;;;;5060880;28;20408;-82
2022/07/31 06:54:11;;;;;;;0.20;0.20;;;19.40;99.90;;;;;;5060549;28;20560;-83
2022/07/31 06:56:38;;;;;;;0.20;0.20;;;19.50;99.90;;;;;;5065140;28;20033;-82
2022/07/31 06:59:05;;;;;;;0.13;0.13;;;19.60;99.90;;;;;;5058921;28;20049;-83
2022/07/31 07:01:32;;;;;;;0.20;0.20;;;19.60;99.90;;;;;;5062282;28;20397;-82
2022/07/31 07:03:58;;;;;;;0.20;0.20;;;19.60;99.90;;;;;;5056546;28;20076;-81
2022/07/31 07:06:25;;;;;;;0.13;0.13;;;19.60;99.90;;;;;;5066413;28;20040;-82
2022/07/31 07:08:51;;;;;;;0.20;0.20;;;19.70;99.90;;;;;;5064224;28;20617;-82
2022/07/31 07:11:18;;;;;;;0.20;0.20;;;19.80;99.90;;;;;;5065584;28;20255;-82
2022/07/31 07:13:43;;;;;;;0.20;0.20;;;19.80;99.90;;;;;;5060649;28;20571;-81
2022/07/31 07:16:09;;;;;;;0.20;0.20;;;19.80;99.90;;;;;;5059320;28;20116;-82
2022/07/31 07:18:35;;;;;;;0.20;0.20;;;19.90;99.90;;;;;;5064695;28;20050;-82
2022/07/31 07:21:01;;;;;;;0.20;0.20;;;20.00;99.90;;;;;;5059729;28;20412;-81
2022/07/31 07:23:29;;;;;;;0.10;0.10;;;20.00;99.90;;;;;;5059417;28;20060;-83
2022/07/31 07:25:55;;;;;;;0.20;0.20;;;20.00;99.90;;;;;;5057849;28;20062;-80
2022/07/31 07:28:24;;;;;;;0.20;0.20;;;20.00;99.90;;;;;;5058854;28;20052;-81
2022/07/31 07:30:50;;;;;;;0.20;0.20;;;20.00;99.90;;;;;;5059021;28;20377;-80
2022/07/31 07:33:15;;;;;;;0.20;0.20;;;20.00;99.90;;;;;;5060237;28;20048;-83
2022/07/31 07:35:42;;;;;;;0.10;0.10;;;20.00;99.90;;;;;;5055307;28;20052;-82
2022/07/31 07:38:08;;;;;;;0.20;0.20;;;20.00;99.90;;;;;;5057049;28;20037;-81
2022/07/31 07:40:34;;;;;;;0.10;0.10;;;20.10;99.90;;;;;;5076338;28;20090;-81
2022/07/31 07:42:59;;;;;;;0.10;0.10;;;20.10;99.90;;;;;;5058025;28;20048;-81
2022/07/31 07:45:25;;;;;;;0.20;0.20;;;20.10;99.90;;;;;;5058567;28;20041;-81
2022/07/31 07:47:51;;;;;;;0.20;0.20;;;20.10;99.90;;;;;;5062074;28;20044;-81
2022/07/31 07:50:17;;;;;;;0.20;0.20;;;20.10;99.90;;;;;;5060504;28;20033;-81
2022/07/31 07:52:43;;;;;;;0.13;0.13;;;20.20;99.90;;;;;;5059941;28;20036;-82
2022/07/31 07:55:11;;;;;;;0.20;0.20;;;20.20;99.90;;;;;;5060435;28;20522;-83
2022/07/31 07:57:37;;;;;;;0.20;0.20;;;20.30;99.90;;;;;;5060311;28;20519;-82
2022/07/31 08:00:06;;;;;;;0.20;0.20;;;20.30;99.90;;;;;;5072131;28;20071;-80
2022/07/31 08:02:32;;;;;;;0.20;0.20;;;20.30;99.90;;;;;;5059472;28;20040;-80
2022/07/31 08:05:01;;;;;;;0.20;0.20;;;20.30;99.90;;;;;;5061873;28;20049;-81
2022/07/31 08:07:32;;;;;;;0.20;0.20;;;20.40;99.90;;;;;;5075295;28;20481;-82
2022/07/31 08:09:58;;;;;;;;;;;20.40;99.90;;;;;;5063675;28;20048;-82
2022/07/31 08:12:24;;;;;;;0.20;0.20;;;20.50;99.90;;;;;;5058635;28;20494;-80
2022/07/31 08:14:50;;;;;;;0.20;0.20;;;20.50;99.90;;;;;;5062386;28;20048;-81
2022/07/31 08:17:16;;;;;;;0.10;0.10;;;20.60;99.90;;;;;;5060279;28;20071;-82
2022/07/31 08:19:42;;;;;;;0.20;0.20;;;20.70;99.90;;;;;;5050009;28;20048;-81
2022/07/31 08:22:08;;;;;;;0.13;0.13;;;20.70;99.90;;;;;;5062992;28;20076;-81
2022/07/31 08:24:33;;;;;;;0.20;0.20;;;20.80;99.90;;;;;;5082165;28;20076;-81
2022/07/31 08:29:44;;;;;;;0.20;0.20;;;20.90;99.90;;;;;;5059369;28;20092;-81
2022/07/31 08:32:10;;;;;;;0.20;0.20;;;21.00;99.90;;;;;;5065306;28;20037;-82
2022/07/31 08:34:36;;;;;;;0.10;0.10;;;21.00;99.90;;;;;;5053583;28;20044;-81
2022/07/31 08:37:05;;;;;;;0.20;0.20;;;21.00;99.90;;;;;;5056782;28;20124;-81
2022/07/31 08:39:31;;;;;;;0.20;0.20;;;21.00;99.90;;;;;;5070897;28;20046;-81
2022/07/31 08:41:57;;;;;;;0.20;0.20;;;21.10;99.90;;;;;;5064866;28;20079;-81
2022/07/31 08:44:22;;;;;;;0.20;0.20;;;21.10;99.90;;;;;;5061266;28;20412;-81
2022/07/31 08:46:49;;;;;;;0.17;0.17;;;21.20;99.90;;;;;;5071899;28;20477;-81
2022/07/31 08:49:17;;;;;;;0.20;0.20;;;21.20;99.90;;;;;;5058075;28;20146;-80
2022/07/31 08:51:44;;;;;;;0.17;0.17;;;21.20;99.90;;;;;;5069727;28;20060;-80
2022/07/31 08:54:10;;;;;;;0.17;0.17;;;21.20;99.90;;;;;;5067536;28;20108;-81
2022/07/31 08:56:39;;;;;;;0.20;0.20;;;21.20;99.90;;;;;;5068250;28;20127;-81
2022/07/31 08:59:06;;;;;;;0.20;0.20;;;21.20;99.90;;;;;;5065134;28;20048;-81
2022/07/31 09:01:33;;;;;;;0.20;0.20;;;21.20;99.90;;;;;;5064147;28;20052;-81
2022/07/31 09:03:59;;;;;;;0.20;0.20;;;21.20;99.90;;;;;;5052967;28;20045;-80
2022/07/31 09:06:25;;;;;;;0.20;0.20;;;21.30;99.90;;;;;;5050201;28;20040;-80
2022/07/31 09:08:54;;;;;;;0.20;0.20;;;21.30;99.90;;;;;;5048109;28;20071;-81
2022/07/31 09:11:22;;;;;;;0.20;0.20;;;21.30;99.90;;;;;;5047826;28;20029;-81
2022/07/31 09:13:55;;;;;;;0.20;0.20;;;21.20;99.90;;;;;;5050149;28;20044;-80
2022/07/31 09:16:21;;;;;;;0.30;0.30;;;21.20;99.90;;;;;;5067675;28;20036;-81
2022/07/31 09:18:58;;;;;;;0.15;0.15;;;21.20;99.90;;;;;;5048888;28;20449;-82
2022/07/31 09:21:24;;;;;;;0.10;0.10;;;21.10;99.90;;;;;;5047681;28;20068;-81
2022/07/31 09:23:50;;;;;;;0.10;0.10;;;21.00;99.90;;;;;;5050604;28;20090;-81
2022/07/31 09:26:16;;;;;;;0.17;0.17;;;21.00;99.90;;;;;;5067825;28;20040;-80
2022/07/31 09:28:45;;;;;;;0.10;0.10;;;21.00;99.90;;;;;;5084939;28;20416;-79
2022/07/31 09:31:15;;;;;;;0.20;0.20;;;21.00;99.90;;;;;;5070114;28;20048;-80
2022/07/31 09:33:45;;;;;;;0.20;0.20;;;21.00;99.90;;;;;;5057882;28;20134;-80
2022/07/31 09:36:11;;;;;;;0.10;0.10;;;20.90;99.90;;;;;;5068632;28;20051;-80
2022/07/31 09:38:39;;;;;;;0.20;0.20;;;20.90;99.90;;;;;;5063119;28;20037;-80
2022/07/31 09:41:19;;;;;;;0.20;0.20;;;20.90;99.90;;;;;;5062168;28;20503;-79
2022/07/31 09:43:56;;;;;;;0.17;0.17;;;20.90;99.90;;;;;;5059308;28;20053;-79
2022/07/31 09:46:21;;;;;;;0.20;0.20;;;21.00;99.90;;;;;;5053322;28;20558;-79
2022/07/31 09:48:53;;;;;;;0.20;0.20;;;21.00;99.90;;;;;;5053718;28;22267;-81
2022/07/31 09:51:18;;;;;;;0.10;0.10;;;21.00;99.90;;;;;;5060715;28;20032;-80
2022/07/31 09:53:46;;;;;;;0.20;0.20;;;20.90;99.90;;;;;;5053754;28;21663;-81
2022/07/31 09:56:14;;;;;;;0.10;0.10;;;20.90;99.90;;;;;;5059208;28;20056;-81
2022/07/31 09:58:41;;;;;;;0.10;0.10;;;20.80;99.90;;;;;;5052176;28;20540;-80
2022/07/31 10:01:11;;;;;;;0.15;0.15;;;20.60;99.90;;;;;;5066309;28;20083;-82
2022/07/31 10:03:38;;;;;;;0.10;0.10;;;20.50;99.90;;;;;;5053869;28;20501;-80
2022/07/31 10:06:14;;;;;;;0.20;0.20;;;20.40;99.90;;;;;;5057688;28;20037;-81
2022/07/31 10:08:42;;;;;;;0.10;0.10;;;20.30;99.90;;;;;;5054413;28;20043;-81
2022/07/31 10:11:09;;;;;;;0.20;0.20;;;20.30;99.90;;;;;;5068140;28;20040;-81
2022/07/31 10:13:38;;;;;;;0.20;0.20;;;20.20;99.90;;;;;;5075073;28;20091;-81
2022/07/31 10:16:05;;;;;;;0.20;0.20;;;20.10;99.90;;;;;;5068082;28;20088;-80
2022/07/31 10:18:37;;;;;;;0.20;0.20;;;20.10;99.90;;;;;;5078143;28;20052;-82
2022/07/31 10:21:06;;;;;;;0.10;0.10;;;20.10;99.90;;;;;;5082074;28;20049;-80
2022/07/31 10:23:39;;;;;;;0.20;0.20;;;20.00;99.90;;;;;;5074057;28;20044;-80
2022/07/31 10:26:05;;;;;;;0.17;0.17;;;20.00;99.90;;;;;;5072359;28;20045;-80
2022/07/31 10:28:31;;;;;;;0.20;0.20;;;20.00;99.90;;;;;;5063812;28;20051;-80
2022/07/31 10:31:19;;;;;;;0.20;0.20;;;20.00;99.90;;;;;;5075391;28;20040;-81
2022/07/31 10:33:46;;;;;;;0.17;0.17;;;20.00;99.90;;;;;;5064812;28;20532;-82
2022/07/31 10:36:26;;;;;;;0.17;0.17;;;20.00;99.90;;;;;;5062532;28;20048;-81
2022/07/31 10:38:58;;;;;;;0.10;0.10;;;20.00;99.90;;;;;;5052081;28;20501;-81
2022/07/31 10:41:51;;;;;;;0.13;0.13;;;20.00;99.90;;;;;;5057467;28;20085;-80
2022/07/31 10:44:28;;;;;;;0.20;0.20;;;20.00;99.90;;;;;;5074489;28;20123;-82
2022/07/31 10:46:54;;;;;;;0.10;0.10;;;20.10;99.90;;;;;;5060607;28;20121;-81
2022/07/31 10:49:47;;;;;;;0.10;0.10;;;20.00;99.90;;;;;;5079983;28;20441;-82
2022/07/31 10:52:14;;;;;;;0.10;0.10;;;20.00;99.90;;;;;;5059486;28;20424;-82
2022/07/31 10:54:41;;;;;;;0.20;0.20;;;20.00;99.90;;;;;;5056660;28;20052;-82
2022/07/31 10:57:06;;;;;;;0.10;0.10;;;20.00;99.90;;;;;;5052295;28;20052;-80
2022/07/31 10:59:35;;;;;;;0.10;0.10;;;20.00;99.90;;;;;;5054419;28;20058;-79
2022/07/31 11:02:00;;;;;;;0.20;0.20;;;19.80;99.90;;;;;;5057520;28;20054;-81
2022/07/31 11:04:30;;;;;;;0.10;0.10;;;19.90;99.90;;;;;;5051708;28;20041;-79
2022/07/31 11:06:59;;;;;;;0.10;0.10;;;19.80;99.90;;;;;;5051675;28;20033;-82
2022/07/31 11:09:27;;;;;;;0.10;0.10;;;19.80;99.90;;;;;;5053542;28;20051;-79
2022/07/31 11:11:53;;;;;;;0.20;0.20;;;19.70;99.90;;;;;;5062471;28;20492;-78
2022/07/31 11:14:33;;;;;;;0.17;0.17;;;19.60;99.90;;;;;;5051162;28;20076;-78
2022/07/31 11:16:59;;;;;;;0.10;0.10;;;19.70;99.90;;;;;;5052774;28;20068;-79
2022/07/31 11:19:39;;;;;;;0.17;0.17;;;19.60;99.90;;;;;;5059994;28;20460;-80
2022/07/31 11:22:12;;;;;;;0.10;0.10;;;19.60;99.90;;;;;;5058469;28;20060;-80
2022/07/31 11:24:39;;;;;;;0.10;0.10;;;19.60;99.90;;;;;;5061473;28;20398;-81
2022/07/31 11:27:05;;;;;;;0.20;0.20;;;19.60;99.90;;;;;;5058324;28;20029;-81
2022/07/31 11:29:34;;;;;;;0.10;0.10;;;19.60;99.90;;;;;;5053048;28;20055;-80
2022/07/31 11:32:13;;;;;;;0.20;0.20;;;19.60;99.90;;;;;;5054075;28;20051;-81
2022/07/31 11:34:52;;;;;;;0.10;0.10;;;19.60;99.90;;;;;;5055029;28;20113;-80
2022/07/31 11:37:36;;;;;;;0.10;0.10;;;19.70;99.90;;;;;;5046168;28;20149;-80
2022/07/31 11:40:05;;;;;;;0.10;0.10;;;19.70;99.90;;;;;;5040320;28;20503;-79
2022/07/31 11:42:40;;;;;;;0.15;0.15;;;19.60;99.90;;;;;;5046840;28;20052;-79
2022/07/31 11:45:10;;;;;;;0.13;0.13;;;19.70;99.90;;;;;;5050544;28;20052;-77
2022/07/31 11:47:40;;;;;;;0.10;0.10;;;19.60;99.90;;;;;;5046529;28;20056;-79
2022/07/31 11:50:06;;;;;;;0.20;0.20;;;19.60;99.90;;;;;;5047189;28;20056;-79
2022/07/31 11:52:32;;;;;;;0.10;0.10;;;19.60;99.90;;;;;;5042172;28;20677;-79
2022/07/31 11:55:06;;;;;;;0.20;0.20;;;19.40;99.90;;;;;;5042511;28;20909;-78
2022/07/31 11:57:32;;;;;;;0.10;0.10;;;19.40;99.90;;;;;;5045590;28;20531;-80
2022/07/31 11:59:57;;;;;;;0.10;0.10;;;19.20;99.90;;;;;;5051040;28;20070;-79
2022/07/31 12:02:24;;;;;;;0.20;0.20;;;19.20;99.90;;;;;;5042811;28;20476;-78
2022/07/31 12:04:50;;;;;;;0.10;0.10;;;19.10;99.90;;;;;;5044435;28;20241;-80
2022/07/31 12:07:16;;;;;;;0.20;0.20;;;19.00;99.90;;;;;;5056519;28;20048;-83
2022/07/31 12:09:43;;;;;;;0.13;0.13;;;19.10;99.90;;;;;;5052441;28;20045;-78
2022/07/31 12:12:10;;;;;;;0.10;0.10;;;19.10;99.90;;;;;;5058653;28;20555;-80
2022/07/31 12:14:38;;;;;;;0.10;0.10;;;19.10;99.90;;;;;;5048324;28;20102;-80
2022/07/31 12:17:06;;;;;;;0.10;0.10;;;19.10;99.90;;;;;;5059806;28;20087;-82
2022/07/31 12:19:33;;;;;;;0.10;0.10;;;19.00;99.90;;;;;;5062792;28;20044;-82
2022/07/31 12:21:59;;;;;;;0.20;0.20;;;18.90;99.90;;;;;;5065046;28;20384;-82
2022/07/31 12:24:25;;;;;;;0.20;0.20;;;18.90;99.90;;;;;;5061444;28;20041;-81
2022/07/31 12:26:59;;;;;;;0.10;0.10;;;18.90;99.90;;;;;;5049585;28;20053;-82
2022/07/31 12:29:33;;;;;;;0.10;0.10;;;18.90;99.90;;;;;;5055073;28;20497;-81
2022/07/31 12:31:59;;;;;;;0.10;0.10;;;18.80;99.90;;;;;;5067479;28;20041;-83
2022/07/31 12:34:33;;;;;;;0.10;0.10;;;19.00;99.90;;;;;;5066565;28;20407;-82
2022/07/31 12:37:05;;;;;;;0.17;0.17;;;19.00;99.90;;;;;;5064832;28;20148;-83
2022/07/31 12:39:34;;;;;;;0.20;0.20;;;18.80;99.90;;;;;;5067599;28;20048;-83
2022/07/31 12:42:00;;;;;;;0.20;0.20;;;18.90;99.90;;;;;;5067987;28;20044;-80
2022/07/31 12:44:27;;;;;;;0.10;0.10;;;18.80;99.90;;;;;;5069062;28;20137;-82
2022/07/31 12:46:53;;;;;;;0.10;0.10;;;18.70;99.90;;;;;;5067961;28;20048;-85
2022/07/31 12:49:21;;;;;;;0.10;0.10;;;18.80;99.90;;;;;;5076880;28;20136;-83
2022/07/31 12:51:47;;;;;;;0.10;0.10;;;18.70;99.90;;;;;;5069674;28;20044;-84
2022/07/31 12:54:17;;;;;;;0.15;0.15;;;18.70;99.90;;;;;;5073385;28;20047;-84